sensor_id;sensor_type;location;lat;lon;timestamp;P1;durP1;ratioP1;P2;durP2;ratioP2
51270;SDS011;37744;50.960;4.136;2022-10-16T00:04:11;2.13;;;0.80;;
51270;SDS011;37744;50.960;4.136;2022-10-16T00:06:37;1.30;;;0.70;;
51270;SDS011;37744;50.960;4.136;2022-10-16T00:09:07;2.75;;;0.90;;
51270;SDS011;37744;50.960;4.136;2022-10-16T00:14:05;1.17;;;0.75;;
51270;SDS011;37744;50.960;4.136;2022-10-16T00:16:35;0.93;;;0.85;;
51270;SDS011;37744;50.960;4.136;2022-10-16T00:19:17;1.90;;;0.70;;
51270;SDS011;37744;50.960;4.136;2022-10-16T00:21:42;2.75;;;1.13;;
51270;SDS011;37744;50.960;4.136;2022-10-16T00:24:08;1.33;;;0.90;;
51270;SDS011;37744;50.960;4.136;2022-10-16T00:26:36;0.95;;;0.73;;
51270;SDS011;37744;50.960;4.136;2022-10-16T00:29:05;1.02;;;0.80;;
51270;SDS011;37744;50.960;4.136;2022-10-16T00:31:34;2.70;;;1.00;;
51270;SDS011;37744;50.960;4.136;2022-10-16T00:34:03;1.75;;;1.00;;
51270;SDS011;37744;50.960;4.136;2022-10-16T00:39:00;1.48;;;0.80;;
51270;SDS011;37744;50.960;4.136;2022-10-16T00:41:28;0.70;;;0.70;;
51270;SDS011;37744;50.960;4.136;2022-10-16T00:44:02;2.25;;;0.80;;
51270;SDS011;37744;50.960;4.136;2022-10-16T00:46:39;0.80;;;0.77;;
51270;SDS011;37744;50.960;4.136;2022-10-16T00:51:46;0.95;;;0.73;;
51270;SDS011;37744;50.960;4.136;2022-10-16T00:54:18;0.80;;;0.57;;
51270;SDS011;37744;50.960;4.136;2022-10-16T00:56:48;2.25;;;0.90;;
51270;SDS011;37744;50.960;4.136;2022-10-16T00:59:20;1.50;;;0.52;;
51270;SDS011;37744;50.960;4.136;2022-10-16T01:04:24;1.13;;;1.10;;
51270;SDS011;37744;50.960;4.136;2022-10-16T01:07:10;1.15;;;0.90;;
51270;SDS011;37744;50.960;4.136;2022-10-16T01:35:14;2.03;;;1.10;;
51270;SDS011;37744;50.960;4.136;2022-10-16T01:43:36;4.15;;;1.40;;
51270;SDS011;37744;50.960;4.136;2022-10-16T01:46:06;2.85;;;1.20;;
51270;SDS011;37744;50.960;4.136;2022-10-16T01:48:38;2.90;;;1.10;;
51270;SDS011;37744;50.960;4.136;2022-10-16T01:51:11;2.38;;;1.13;;
51270;SDS011;37744;50.960;4.136;2022-10-16T01:53:40;2.13;;;1.10;;
51270;SDS011;37744;50.960;4.136;2022-10-16T01:56:21;1.95;;;1.10;;
51270;SDS011;37744;50.960;4.136;2022-10-16T01:58:57;2.17;;;1.30;;
51270;SDS011;37744;50.960;4.136;2022-10-16T02:04:07;2.53;;;1.13;;
51270;SDS011;37744;50.960;4.136;2022-10-16T02:06:39;2.42;;;1.38;;
51270;SDS011;37744;50.960;4.136;2022-10-16T02:09:08;1.17;;;1.05;;
51270;SDS011;37744;50.960;4.136;2022-10-16T02:11:34;1.65;;;1.25;;
51270;SDS011;37744;50.960;4.136;2022-10-16T02:14:04;3.33;;;1.40;;
51270;SDS011;37744;50.960;4.136;2022-10-16T02:19:03;2.97;;;1.65;;
51270;SDS011;37744;50.960;4.136;2022-10-16T02:24:33;2.72;;;1.52;;
51270;SDS011;37744;50.960;4.136;2022-10-16T02:27:21;2.33;;;1.40;;
51270;SDS011;37744;50.960;4.136;2022-10-16T02:30:19;1.90;;;1.30;;
51270;SDS011;37744;50.960;4.136;2022-10-16T02:32:53;4.07;;;1.40;;
51270;SDS011;37744;50.960;4.136;2022-10-16T02:35:24;3.85;;;1.55;;
51270;SDS011;37744;50.960;4.136;2022-10-16T02:37:58;3.13;;;1.30;;
51270;SDS011;37744;50.960;4.136;2022-10-16T02:40:25;3.10;;;1.48;;
51270;SDS011;37744;50.960;4.136;2022-10-16T02:42:52;2.63;;;1.30;;
51270;SDS011;37744;50.960;4.136;2022-10-16T02:50:23;6.63;;;1.92;;
51270;SDS011;37744;50.960;4.136;2022-10-16T02:52:53;1.40;;;1.30;;
51270;SDS011;37744;50.960;4.136;2022-10-16T02:55:19;3.00;;;1.38;;
51270;SDS011;37744;50.960;4.136;2022-10-16T03:00:14;1.33;;;1.20;;
51270;SDS011;37744;50.960;4.136;2022-10-16T03:02:43;1.48;;;1.27;;
51270;SDS011;37744;50.960;4.136;2022-10-16T03:05:12;3.55;;;1.30;;
51270;SDS011;37744;50.960;4.136;2022-10-16T03:07:41;3.65;;;1.65;;
51270;SDS011;37744;50.960;4.136;2022-10-16T03:10:13;3.13;;;1.77;;
51270;SDS011;37744;50.960;4.136;2022-10-16T03:12:41;3.60;;;1.80;;
51270;SDS011;37744;50.960;4.136;2022-10-16T03:15:12;1.60;;;1.38;;
51270;SDS011;37744;50.960;4.136;2022-10-16T03:17:40;2.22;;;1.70;;
51270;SDS011;37744;50.960;4.136;2022-10-16T03:20:07;4.13;;;1.83;;
51270;SDS011;37744;50.960;4.136;2022-10-16T03:22:33;3.05;;;1.90;;
51270;SDS011;37744;50.960;4.136;2022-10-16T03:24:59;2.83;;;1.77;;
51270;SDS011;37744;50.960;4.136;2022-10-16T03:29:54;2.35;;;1.70;;
51270;SDS011;37744;50.960;4.136;2022-10-16T03:34:51;2.72;;;2.03;;
51270;SDS011;37744;50.960;4.136;2022-10-16T03:37:20;3.65;;;2.08;;
51270;SDS011;37744;50.960;4.136;2022-10-16T03:44:45;2.72;;;1.50;;
51270;SDS011;37744;50.960;4.136;2022-10-16T03:47:18;5.72;;;1.95;;
51270;SDS011;37744;50.960;4.136;2022-10-16T03:52:19;3.33;;;2.13;;
51270;SDS011;37744;50.960;4.136;2022-10-16T03:54:46;3.05;;;2.00;;
51270;SDS011;37744;50.960;4.136;2022-10-16T03:57:11;2.03;;;1.80;;
51270;SDS011;37744;50.960;4.136;2022-10-16T03:59:38;4.03;;;1.77;;
51270;SDS011;37744;50.960;4.136;2022-10-16T04:02:05;2.67;;;1.80;;
51270;SDS011;37744;50.960;4.136;2022-10-16T04:04:30;2.20;;;2.00;;
51270;SDS011;37744;50.960;4.136;2022-10-16T04:06:57;3.60;;;1.80;;
51270;SDS011;37744;50.960;4.136;2022-10-16T04:09:25;6.07;;;1.77;;
51270;SDS011;37744;50.960;4.136;2022-10-16T04:11:51;5.55;;;2.40;;
51270;SDS011;37744;50.960;4.136;2022-10-16T04:14:16;10.95;;;2.15;;
51270;SDS011;37744;50.960;4.136;2022-10-16T04:16:45;3.00;;;1.90;;
51270;SDS011;37744;50.960;4.136;2022-10-16T04:21:43;3.63;;;1.77;;
51270;SDS011;37744;50.960;4.136;2022-10-16T04:26:42;5.20;;;2.00;;
51270;SDS011;37744;50.960;4.136;2022-10-16T04:29:07;3.65;;;2.03;;
51270;SDS011;37744;50.960;4.136;2022-10-16T04:31:33;6.32;;;1.85;;
51270;SDS011;37744;50.960;4.136;2022-10-16T04:34:00;4.60;;;2.00;;
51270;SDS011;37744;50.960;4.136;2022-10-16T04:38:57;2.92;;;2.00;;
51270;SDS011;37744;50.960;4.136;2022-10-16T04:43:54;3.63;;;1.60;;
51270;SDS011;37744;50.960;4.136;2022-10-16T04:48:51;8.57;;;2.25;;
51270;SDS011;37744;50.960;4.136;2022-10-16T04:51:16;2.10;;;1.83;;
51270;SDS011;37744;50.960;4.136;2022-10-16T04:53:46;3.08;;;1.65;;
51270;SDS011;37744;50.960;4.136;2022-10-16T04:56:12;4.90;;;1.77;;
51270;SDS011;37744;50.960;4.136;2022-10-16T04:58:38;3.65;;;1.90;;
51270;SDS011;37744;50.960;4.136;2022-10-16T05:01:04;2.90;;;1.83;;
51270;SDS011;37744;50.960;4.136;2022-10-16T05:03:30;6.40;;;1.98;;
51270;SDS011;37744;50.960;4.136;2022-10-16T05:05:59;3.88;;;1.48;;
51270;SDS011;37744;50.960;4.136;2022-10-16T05:08:25;1.67;;;1.50;;
51270;SDS011;37744;50.960;4.136;2022-10-16T05:10:50;3.53;;;1.98;;
51270;SDS011;37744;50.960;4.136;2022-10-16T05:13:18;1.73;;;1.52;;
51270;SDS011;37744;50.960;4.136;2022-10-16T05:18:16;3.00;;;1.85;;
51270;SDS011;37744;50.960;4.136;2022-10-16T05:23:13;3.03;;;1.95;;
51270;SDS011;37744;50.960;4.136;2022-10-16T05:25:39;3.85;;;3.45;;
51270;SDS011;37744;50.960;4.136;2022-10-16T05:28:06;2.97;;;2.30;;
51270;SDS011;37744;50.960;4.136;2022-10-16T05:30:31;3.50;;;2.20;;
51270;SDS011;37744;50.960;4.136;2022-10-16T05:33:00;3.15;;;1.88;;
51270;SDS011;37744;50.960;4.136;2022-10-16T05:35:26;3.63;;;2.30;;
51270;SDS011;37744;50.960;4.136;2022-10-16T05:40:20;5.57;;;2.65;;
51270;SDS011;37744;50.960;4.136;2022-10-16T05:42:46;4.00;;;2.60;;
51270;SDS011;37744;50.960;4.136;2022-10-16T05:47:40;4.03;;;2.20;;
51270;SDS011;37744;50.960;4.136;2022-10-16T05:50:08;3.80;;;2.50;;
51270;SDS011;37744;50.960;4.136;2022-10-16T05:52:40;4.80;;;1.80;;
51270;SDS011;37744;50.960;4.136;2022-10-16T05:55:05;5.15;;;2.30;;
51270;SDS011;37744;50.960;4.136;2022-10-16T05:57:32;3.55;;;2.33;;
51270;SDS011;37744;50.960;4.136;2022-10-16T06:00:04;6.15;;;2.05;;
51270;SDS011;37744;50.960;4.136;2022-10-16T06:02:30;3.13;;;1.97;;
51270;SDS011;37744;50.960;4.136;2022-10-16T06:04:57;9.35;;;2.22;;
51270;SDS011;37744;50.960;4.136;2022-10-16T06:07:27;2.67;;;1.67;;
51270;SDS011;37744;50.960;4.136;2022-10-16T06:09:53;5.05;;;2.15;;
51270;SDS011;37744;50.960;4.136;2022-10-16T06:12:20;2.65;;;1.95;;
51270;SDS011;37744;50.960;4.136;2022-10-16T06:14:48;3.15;;;2.28;;
51270;SDS011;37744;50.960;4.136;2022-10-16T06:17:17;2.90;;;1.73;;
51270;SDS011;37744;50.960;4.136;2022-10-16T06:19:43;3.25;;;1.73;;
51270;SDS011;37744;50.960;4.136;2022-10-16T06:22:10;5.88;;;1.92;;
51270;SDS011;37744;50.960;4.136;2022-10-16T06:24:39;4.93;;;1.95;;
51270;SDS011;37744;50.960;4.136;2022-10-16T06:27:04;3.17;;;1.95;;
51270;SDS011;37744;50.960;4.136;2022-10-16T06:29:30;7.40;;;2.10;;
51270;SDS011;37744;50.960;4.136;2022-10-16T06:31:58;4.85;;;2.30;;
51270;SDS011;37744;50.960;4.136;2022-10-16T06:34:24;3.83;;;1.80;;
51270;SDS011;37744;50.960;4.136;2022-10-16T06:36:50;5.13;;;2.17;;
51270;SDS011;37744;50.960;4.136;2022-10-16T06:39:17;5.97;;;2.38;;
51270;SDS011;37744;50.960;4.136;2022-10-16T06:41:42;5.28;;;2.05;;
51270;SDS011;37744;50.960;4.136;2022-10-16T06:44:08;3.55;;;1.95;;
51270;SDS011;37744;50.960;4.136;2022-10-16T06:46:33;3.78;;;2.05;;
51270;SDS011;37744;50.960;4.136;2022-10-16T06:49:00;4.43;;;1.90;;
51270;SDS011;37744;50.960;4.136;2022-10-16T06:51:25;1.95;;;1.70;;
51270;SDS011;37744;50.960;4.136;2022-10-16T06:53:54;5.75;;;2.35;;
51270;SDS011;37744;50.960;4.136;2022-10-16T06:56:24;5.18;;;2.50;;
51270;SDS011;37744;50.960;4.136;2022-10-16T06:58:52;3.47;;;1.83;;
51270;SDS011;37744;50.960;4.136;2022-10-16T07:01:19;3.97;;;1.90;;
51270;SDS011;37744;50.960;4.136;2022-10-16T07:03:47;5.63;;;2.40;;
51270;SDS011;37744;50.960;4.136;2022-10-16T07:06:16;5.75;;;2.10;;
51270;SDS011;37744;50.960;4.136;2022-10-16T07:08:45;5.07;;;2.00;;
51270;SDS011;37744;50.960;4.136;2022-10-16T07:11:12;6.47;;;3.45;;
51270;SDS011;37744;50.960;4.136;2022-10-16T07:13:41;6.95;;;2.85;;
51270;SDS011;37744;50.960;4.136;2022-10-16T07:16:15;4.32;;;2.88;;
51270;SDS011;37744;50.960;4.136;2022-10-16T07:18:44;3.22;;;1.88;;
51270;SDS011;37744;50.960;4.136;2022-10-16T07:21:18;2.63;;;1.80;;
51270;SDS011;37744;50.960;4.136;2022-10-16T07:23:45;2.33;;;1.85;;
51270;SDS011;37744;50.960;4.136;2022-10-16T07:26:15;3.83;;;1.73;;
51270;SDS011;37744;50.960;4.136;2022-10-16T07:28:40;3.15;;;1.92;;
51270;SDS011;37744;50.960;4.136;2022-10-16T07:31:09;3.47;;;1.80;;
51270;SDS011;37744;50.960;4.136;2022-10-16T07:33:37;5.70;;;2.17;;
51270;SDS011;37744;50.960;4.136;2022-10-16T07:36:04;8.48;;;1.60;;
51270;SDS011;37744;50.960;4.136;2022-10-16T07:38:30;4.63;;;1.92;;
51270;SDS011;37744;50.960;4.136;2022-10-16T07:40:56;4.38;;;2.30;;
51270;SDS011;37744;50.960;4.136;2022-10-16T07:43:27;5.28;;;2.70;;
51270;SDS011;37744;50.960;4.136;2022-10-16T07:45:53;3.97;;;2.28;;
51270;SDS011;37744;50.960;4.136;2022-10-16T07:48:27;3.15;;;1.90;;
51270;SDS011;37744;50.960;4.136;2022-10-16T07:50:59;5.28;;;2.83;;
51270;SDS011;37744;50.960;4.136;2022-10-16T07:53:29;3.97;;;2.35;;
51270;SDS011;37744;50.960;4.136;2022-10-16T07:55:58;4.13;;;2.08;;
51270;SDS011;37744;50.960;4.136;2022-10-16T07:58:30;3.88;;;2.33;;
51270;SDS011;37744;50.960;4.136;2022-10-16T08:00:57;5.30;;;2.58;;
51270;SDS011;37744;50.960;4.136;2022-10-16T08:03:25;4.47;;;2.10;;
51270;SDS011;37744;50.960;4.136;2022-10-16T08:05:51;4.93;;;2.40;;
51270;SDS011;37744;50.960;4.136;2022-10-16T08:08:17;6.20;;;2.20;;
51270;SDS011;37744;50.960;4.136;2022-10-16T08:10:43;4.35;;;2.08;;
51270;SDS011;37744;50.960;4.136;2022-10-16T08:13:11;7.43;;;2.20;;
51270;SDS011;37744;50.960;4.136;2022-10-16T08:15:37;4.82;;;1.90;;
51270;SDS011;37744;50.960;4.136;2022-10-16T08:18:06;4.70;;;2.25;;
51270;SDS011;37744;50.960;4.136;2022-10-16T08:20:32;6.50;;;1.77;;
51270;SDS011;37744;50.960;4.136;2022-10-16T08:23:00;3.38;;;1.65;;
51270;SDS011;37744;50.960;4.136;2022-10-16T08:25:34;2.80;;;1.70;;
51270;SDS011;37744;50.960;4.136;2022-10-16T08:28:05;5.53;;;1.83;;
51270;SDS011;37744;50.960;4.136;2022-10-16T08:30:33;3.65;;;1.60;;
51270;SDS011;37744;50.960;4.136;2022-10-16T08:32:59;4.18;;;1.65;;
51270;SDS011;37744;50.960;4.136;2022-10-16T08:35:26;6.45;;;1.70;;
51270;SDS011;37744;50.960;4.136;2022-10-16T08:37:51;4.82;;;1.50;;
51270;SDS011;37744;50.960;4.136;2022-10-16T08:40:22;4.28;;;1.77;;
51270;SDS011;37744;50.960;4.136;2022-10-16T08:49:00;4.65;;;1.83;;
51270;SDS011;37744;50.960;4.136;2022-10-16T08:51:35;5.68;;;1.30;;
51270;SDS011;37744;50.960;4.136;2022-10-16T08:54:06;3.25;;;1.20;;
51270;SDS011;37744;50.960;4.136;2022-10-16T08:56:49;2.60;;;1.50;;
51270;SDS011;37744;50.960;4.136;2022-10-16T08:59:17;5.07;;;1.67;;
51270;SDS011;37744;50.960;4.136;2022-10-16T09:09:40;3.17;;;1.58;;
51270;SDS011;37744;50.960;4.136;2022-10-16T09:12:39;4.28;;;1.48;;
51270;SDS011;37744;50.960;4.136;2022-10-16T09:15:17;7.85;;;1.65;;
51270;SDS011;37744;50.960;4.136;2022-10-16T09:20:49;4.20;;;1.40;;
51270;SDS011;37744;50.960;4.136;2022-10-16T09:23:22;7.03;;;1.80;;
51270;SDS011;37744;50.960;4.136;2022-10-16T09:25:51;2.30;;;1.33;;
51270;SDS011;37744;50.960;4.136;2022-10-16T09:28:18;3.47;;;1.60;;
51270;SDS011;37744;50.960;4.136;2022-10-16T09:30:46;3.83;;;1.48;;
51270;SDS011;37744;50.960;4.136;2022-10-16T09:35:48;6.55;;;1.42;;
51270;SDS011;37744;50.960;4.136;2022-10-16T09:38:32;4.70;;;1.50;;
51270;SDS011;37744;50.960;4.136;2022-10-16T09:41:00;6.10;;;1.15;;
51270;SDS011;37744;50.960;4.136;2022-10-16T09:46:28;3.88;;;1.42;;
51270;SDS011;37744;50.960;4.136;2022-10-16T09:49:02;3.63;;;1.10;;
51270;SDS011;37744;50.960;4.136;2022-10-16T09:51:30;6.40;;;1.35;;
51270;SDS011;37744;50.960;4.136;2022-10-16T09:54:17;4.53;;;1.35;;
51270;SDS011;37744;50.960;4.136;2022-10-16T09:56:43;2.88;;;1.40;;
51270;SDS011;37744;50.960;4.136;2022-10-16T09:59:12;4.78;;;1.40;;
51270;SDS011;37744;50.960;4.136;2022-10-16T10:01:45;7.05;;;1.20;;
51270;SDS011;37744;50.960;4.136;2022-10-16T10:04:13;3.65;;;1.40;;
51270;SDS011;37744;50.960;4.136;2022-10-16T10:06:49;4.63;;;1.58;;
51270;SDS011;37744;50.960;4.136;2022-10-16T10:09:24;5.55;;;1.50;;
51270;SDS011;37744;50.960;4.136;2022-10-16T10:11:59;5.60;;;1.33;;
51270;SDS011;37744;50.960;4.136;2022-10-16T10:19:46;5.95;;;1.80;;
51270;SDS011;37744;50.960;4.136;2022-10-16T10:24:54;8.05;;;1.95;;
51270;SDS011;37744;50.960;4.136;2022-10-16T10:38:51;8.05;;;1.67;;
51270;SDS011;37744;50.960;4.136;2022-10-16T10:52:08;5.72;;;1.15;;
51270;SDS011;37744;50.960;4.136;2022-10-16T11:00:28;5.07;;;1.40;;
51270;SDS011;37744;50.960;4.136;2022-10-16T11:03:27;8.73;;;1.20;;
51270;SDS011;37744;50.960;4.136;2022-10-16T11:06:18;5.07;;;1.30;;
51270;SDS011;37744;50.960;4.136;2022-10-16T11:11:44;2.95;;;1.10;;
51270;SDS011;37744;50.960;4.136;2022-10-16T11:24:48;3.40;;;1.10;;
51270;SDS011;37744;50.960;4.136;2022-10-16T11:27:36;2.65;;;1.08;;
51270;SDS011;37744;50.960;4.136;2022-10-16T11:30:15;7.38;;;1.02;;
51270;SDS011;37744;50.960;4.136;2022-10-16T11:35:44;4.60;;;1.20;;
51270;SDS011;37744;50.960;4.136;2022-10-16T11:38:23;6.93;;;1.10;;
51270;SDS011;37744;50.960;4.136;2022-10-16T11:40:52;7.40;;;1.38;;
51270;SDS011;37744;50.960;4.136;2022-10-16T11:43:32;4.43;;;1.00;;
51270;SDS011;37744;50.960;4.136;2022-10-16T11:46:24;3.72;;;1.30;;
51270;SDS011;37744;50.960;4.136;2022-10-16T11:49:10;4.47;;;1.20;;
51270;SDS011;37744;50.960;4.136;2022-10-16T11:57:33;2.30;;;0.95;;
51270;SDS011;37744;50.960;4.136;2022-10-16T12:00:06;4.55;;;1.00;;
51270;SDS011;37744;50.960;4.136;2022-10-16T12:02:49;4.32;;;1.20;;
51270;SDS011;37744;50.960;4.136;2022-10-16T12:05:35;2.97;;;0.90;;
51270;SDS011;37744;50.960;4.136;2022-10-16T12:08:46;4.60;;;1.13;;
51270;SDS011;37744;50.960;4.136;2022-10-16T12:19:25;3.28;;;0.90;;
51270;SDS011;37744;50.960;4.136;2022-10-16T12:21:55;3.92;;;0.90;;
51270;SDS011;37744;50.960;4.136;2022-10-16T12:26:58;5.13;;;1.00;;
51270;SDS011;37744;50.960;4.136;2022-10-16T12:32:03;6.97;;;1.42;;
51270;SDS011;37744;50.960;4.136;2022-10-16T12:39:49;2.95;;;0.90;;
51270;SDS011;37744;50.960;4.136;2022-10-16T12:42:35;3.45;;;0.93;;
51270;SDS011;37744;50.960;4.136;2022-10-16T12:45:01;3.20;;;1.15;;
51270;SDS011;37744;50.960;4.136;2022-10-16T12:47:37;3.53;;;1.58;;
51270;SDS011;37744;50.960;4.136;2022-10-16T12:53:18;2.55;;;0.82;;
51270;SDS011;37744;50.960;4.136;2022-10-16T13:01:36;1.65;;;0.80;;
51270;SDS011;37744;50.960;4.136;2022-10-16T13:15:21;2.08;;;1.10;;
51270;SDS011;37744;50.960;4.136;2022-10-16T13:20:41;3.55;;;0.70;;
51270;SDS011;37744;50.960;4.136;2022-10-16T13:23:13;2.15;;;0.90;;
51270;SDS011;37744;50.960;4.136;2022-10-16T13:28:33;2.97;;;1.00;;
51270;SDS011;37744;50.960;4.136;2022-10-16T13:31:00;2.65;;;0.90;;
51270;SDS011;37744;50.960;4.136;2022-10-16T13:33:40;2.33;;;0.98;;
51270;SDS011;37744;50.960;4.136;2022-10-16T13:36:20;1.63;;;1.20;;
51270;SDS011;37744;50.960;4.136;2022-10-16T13:39:20;6.15;;;1.90;;
51270;SDS011;37744;50.960;4.136;2022-10-16T13:41:57;3.78;;;1.55;;
51270;SDS011;37744;50.960;4.136;2022-10-16T13:44:23;2.03;;;1.10;;
51270;SDS011;37744;50.960;4.136;2022-10-16T13:47:00;2.65;;;0.95;;
51270;SDS011;37744;50.960;4.136;2022-10-16T13:49:26;2.10;;;0.80;;
51270;SDS011;37744;50.960;4.136;2022-10-16T13:52:01;2.33;;;1.00;;
51270;SDS011;37744;50.960;4.136;2022-10-16T13:54:27;2.45;;;0.90;;
51270;SDS011;37744;50.960;4.136;2022-10-16T13:57:04;4.30;;;1.20;;
51270;SDS011;37744;50.960;4.136;2022-10-16T13:59:33;6.00;;;0.98;;
51270;SDS011;37744;50.960;4.136;2022-10-16T14:02:00;0.88;;;0.80;;
51270;SDS011;37744;50.960;4.136;2022-10-16T14:04:43;2.92;;;0.80;;
51270;SDS011;37744;50.960;4.136;2022-10-16T14:09:48;3.08;;;1.10;;
51270;SDS011;37744;50.960;4.136;2022-10-16T14:14:46;3.78;;;1.30;;
51270;SDS011;37744;50.960;4.136;2022-10-16T14:17:15;3.58;;;1.13;;
51270;SDS011;37744;50.960;4.136;2022-10-16T14:19:49;4.57;;;1.02;;
51270;SDS011;37744;50.960;4.136;2022-10-16T14:22:32;1.35;;;0.90;;
51270;SDS011;37744;50.960;4.136;2022-10-16T14:25:20;4.20;;;0.98;;
51270;SDS011;37744;50.960;4.136;2022-10-16T14:27:59;3.45;;;1.10;;
51270;SDS011;37744;50.960;4.136;2022-10-16T14:30:30;4.18;;;1.05;;
51270;SDS011;37744;50.960;4.136;2022-10-16T14:32:58;2.60;;;0.88;;
51270;SDS011;37744;50.960;4.136;2022-10-16T14:38:03;5.95;;;1.27;;
51270;SDS011;37744;50.960;4.136;2022-10-16T14:40:34;4.32;;;1.30;;
51270;SDS011;37744;50.960;4.136;2022-10-16T14:43:02;3.65;;;1.00;;
51270;SDS011;37744;50.960;4.136;2022-10-16T14:45:30;3.13;;;0.95;;
51270;SDS011;37744;50.960;4.136;2022-10-16T14:48:01;3.95;;;1.25;;
51270;SDS011;37744;50.960;4.136;2022-10-16T14:50:32;3.30;;;1.20;;
51270;SDS011;37744;50.960;4.136;2022-10-16T14:52:59;2.08;;;0.82;;
51270;SDS011;37744;50.960;4.136;2022-10-16T14:55:25;1.33;;;0.82;;
51270;SDS011;37744;50.960;4.136;2022-10-16T14:57:52;1.55;;;1.10;;
51270;SDS011;37744;50.960;4.136;2022-10-16T15:00:21;6.57;;;1.15;;
51270;SDS011;37744;50.960;4.136;2022-10-16T15:02:49;1.85;;;1.08;;
51270;SDS011;37744;50.960;4.136;2022-10-16T15:05:17;2.95;;;0.75;;
51270;SDS011;37744;50.960;4.136;2022-10-16T15:07:45;3.05;;;1.00;;
51270;SDS011;37744;50.960;4.136;2022-10-16T15:10:15;4.50;;;1.00;;
51270;SDS011;37744;50.960;4.136;2022-10-16T15:12:44;3.03;;;0.90;;
51270;SDS011;37744;50.960;4.136;2022-10-16T15:15:55;2.15;;;1.00;;
51270;SDS011;37744;50.960;4.136;2022-10-16T15:18:04;1.85;;;1.00;;
51270;SDS011;37744;50.960;4.136;2022-10-16T15:20:31;1.65;;;1.10;;
51270;SDS011;37744;50.960;4.136;2022-10-16T15:23:01;4.68;;;1.42;;
51270;SDS011;37744;50.960;4.136;2022-10-16T15:28:06;7.03;;;1.33;;
51270;SDS011;37744;50.960;4.136;2022-10-16T15:30:33;4.00;;;1.80;;
51270;SDS011;37744;50.960;4.136;2022-10-16T15:33:00;4.93;;;2.75;;
51270;SDS011;37744;50.960;4.136;2022-10-16T15:35:26;10.00;;;3.97;;
51270;SDS011;37744;50.960;4.136;2022-10-16T15:37:53;9.00;;;4.22;;
51270;SDS011;37744;50.960;4.136;2022-10-16T15:40:19;5.13;;;3.28;;
51270;SDS011;37744;50.960;4.136;2022-10-16T15:42:46;2.70;;;2.13;;
51270;SDS011;37744;50.960;4.136;2022-10-16T15:45:12;3.15;;;1.67;;
51270;SDS011;37744;50.960;4.136;2022-10-16T15:47:38;5.75;;;2.55;;
51270;SDS011;37744;50.960;4.136;2022-10-16T15:50:05;3.42;;;2.10;;
51270;SDS011;37744;50.960;4.136;2022-10-16T15:52:32;1.33;;;1.20;;
51270;SDS011;37744;50.960;4.136;2022-10-16T15:54:58;1.98;;;1.50;;
51270;SDS011;37744;50.960;4.136;2022-10-16T15:57:24;4.35;;;1.60;;
51270;SDS011;37744;50.960;4.136;2022-10-16T15:59:50;2.75;;;1.92;;
51270;SDS011;37744;50.960;4.136;2022-10-16T16:02:16;4.40;;;2.20;;
51270;SDS011;37744;50.960;4.136;2022-10-16T16:04:42;3.45;;;2.05;;
51270;SDS011;37744;50.960;4.136;2022-10-16T16:07:08;3.53;;;1.70;;
51270;SDS011;37744;50.960;4.136;2022-10-16T16:09:33;3.42;;;1.92;;
51270;SDS011;37744;50.960;4.136;2022-10-16T16:11:59;4.47;;;2.33;;
51270;SDS011;37744;50.960;4.136;2022-10-16T16:14:25;4.10;;;1.92;;
51270;SDS011;37744;50.960;4.136;2022-10-16T16:16:54;3.55;;;2.00;;
51270;SDS011;37744;50.960;4.136;2022-10-16T16:19:20;4.13;;;1.73;;
51270;SDS011;37744;50.960;4.136;2022-10-16T16:21:47;3.15;;;1.70;;
51270;SDS011;37744;50.960;4.136;2022-10-16T16:24:13;4.55;;;1.70;;
51270;SDS011;37744;50.960;4.136;2022-10-16T16:26:38;5.72;;;1.65;;
51270;SDS011;37744;50.960;4.136;2022-10-16T16:29:08;2.25;;;1.33;;
51270;SDS011;37744;50.960;4.136;2022-10-16T16:31:36;3.45;;;1.30;;
51270;SDS011;37744;50.960;4.136;2022-10-16T16:36:32;4.30;;;1.70;;
51270;SDS011;37744;50.960;4.136;2022-10-16T16:41:28;81.13;;;48.10;;
51270;SDS011;37744;50.960;4.136;2022-10-16T16:43:55;100.43;;;59.13;;
51270;SDS011;37744;50.960;4.136;2022-10-16T16:46:28;96.68;;;54.60;;
51270;SDS011;37744;50.960;4.136;2022-10-16T16:49:00;70.82;;;43.13;;
51270;SDS011;37744;50.960;4.136;2022-10-16T16:53:56;21.70;;;13.73;;
51270;SDS011;37744;50.960;4.136;2022-10-16T16:56:24;16.20;;;9.32;;
51270;SDS011;37744;50.960;4.136;2022-10-16T16:58:51;10.10;;;6.72;;
51270;SDS011;37744;50.960;4.136;2022-10-16T17:01:22;8.73;;;5.32;;
51270;SDS011;37744;50.960;4.136;2022-10-16T17:03:53;7.47;;;4.72;;
51270;SDS011;37744;50.960;4.136;2022-10-16T17:08:52;8.68;;;3.90;;
51270;SDS011;37744;50.960;4.136;2022-10-16T17:11:21;6.68;;;3.90;;
51270;SDS011;37744;50.960;4.136;2022-10-16T17:13:48;9.23;;;4.00;;
51270;SDS011;37744;50.960;4.136;2022-10-16T17:18:46;7.65;;;3.90;;
51270;SDS011;37744;50.960;4.136;2022-10-16T17:21:13;8.90;;;3.95;;
51270;SDS011;37744;50.960;4.136;2022-10-16T17:23:41;5.82;;;3.50;;
51270;SDS011;37744;50.960;4.136;2022-10-16T17:26:09;9.45;;;4.30;;
51270;SDS011;37744;50.960;4.136;2022-10-16T17:28:38;6.22;;;3.60;;
51270;SDS011;37744;50.960;4.136;2022-10-16T17:31:16;5.72;;;3.42;;
51270;SDS011;37744;50.960;4.136;2022-10-16T17:33:46;7.85;;;3.17;;
51270;SDS011;37744;50.960;4.136;2022-10-16T17:36:19;9.95;;;6.65;;
51270;SDS011;37744;50.960;4.136;2022-10-16T17:38:48;15.43;;;11.55;;
51270;SDS011;37744;50.960;4.136;2022-10-16T17:41:14;14.73;;;10.50;;
51270;SDS011;37744;50.960;4.136;2022-10-16T17:43:44;13.40;;;9.52;;
51270;SDS011;37744;50.960;4.136;2022-10-16T17:46:12;12.85;;;8.98;;
51270;SDS011;37744;50.960;4.136;2022-10-16T17:48:45;11.73;;;8.02;;
51270;SDS011;37744;50.960;4.136;2022-10-16T17:51:16;11.60;;;6.07;;
51270;SDS011;37744;50.960;4.136;2022-10-16T17:53:48;16.55;;;12.95;;
51270;SDS011;37744;50.960;4.136;2022-10-16T17:56:19;22.40;;;16.77;;
51270;SDS011;37744;50.960;4.136;2022-10-16T17:58:52;19.23;;;15.35;;
51270;SDS011;37744;50.960;4.136;2022-10-16T18:01:23;12.88;;;10.55;;
51270;SDS011;37744;50.960;4.136;2022-10-16T18:03:58;15.35;;;9.50;;
51270;SDS011;37744;50.960;4.136;2022-10-16T18:06:34;20.77;;;11.57;;
51270;SDS011;37744;50.960;4.136;2022-10-16T18:09:01;33.03;;;20.92;;
51270;SDS011;37744;50.960;4.136;2022-10-16T18:11:29;25.13;;;15.18;;
51270;SDS011;37744;50.960;4.136;2022-10-16T18:13:58;19.73;;;11.57;;
51270;SDS011;37744;50.960;4.136;2022-10-16T18:16:27;22.88;;;10.98;;
51270;SDS011;37744;50.960;4.136;2022-10-16T18:18:56;20.83;;;9.65;;
51270;SDS011;37744;50.960;4.136;2022-10-16T18:21:26;13.10;;;8.02;;
51270;SDS011;37744;50.960;4.136;2022-10-16T18:23:54;9.27;;;5.97;;
51270;SDS011;37744;50.960;4.136;2022-10-16T18:26:22;5.93;;;5.32;;
51270;SDS011;37744;50.960;4.136;2022-10-16T18:28:51;7.78;;;5.80;;
51270;SDS011;37744;50.960;4.136;2022-10-16T18:31:19;9.48;;;5.90;;
51270;SDS011;37744;50.960;4.136;2022-10-16T18:33:47;8.85;;;5.57;;
51270;SDS011;37744;50.960;4.136;2022-10-16T18:36:18;12.55;;;7.75;;
51270;SDS011;37744;50.960;4.136;2022-10-16T18:38:48;12.55;;;8.00;;
51270;SDS011;37744;50.960;4.136;2022-10-16T18:41:16;9.07;;;7.10;;
51270;SDS011;37744;50.960;4.136;2022-10-16T18:43:47;12.20;;;7.85;;
51270;SDS011;37744;50.960;4.136;2022-10-16T18:46:17;12.73;;;8.88;;
51270;SDS011;37744;50.960;4.136;2022-10-16T18:48:44;17.63;;;11.13;;
51270;SDS011;37744;50.960;4.136;2022-10-16T18:53:55;13.07;;;9.18;;
51270;SDS011;37744;50.960;4.136;2022-10-16T18:56:24;11.85;;;8.02;;
51270;SDS011;37744;50.960;4.136;2022-10-16T18:58:52;7.70;;;6.30;;
51270;SDS011;37744;50.960;4.136;2022-10-16T19:01:21;10.73;;;8.80;;
51270;SDS011;37744;50.960;4.136;2022-10-16T19:04:00;14.15;;;9.73;;
51270;SDS011;37744;50.960;4.136;2022-10-16T19:06:31;11.63;;;8.45;;
51270;SDS011;37744;50.960;4.136;2022-10-16T19:09:03;13.85;;;9.63;;